createdAt,value
2023-04-25T00:01:37.045Z,7.14
2023-04-25T00:04:05.846Z,7.06
2023-04-25T00:06:33.534Z,7.09
2023-04-25T00:09:01.097Z,7.03
2023-04-25T00:11:28.375Z,7.06
2023-04-25T00:13:57.217Z,7.04
2023-04-25T00:16:24.726Z,7.06
2023-04-25T00:18:52.528Z,7.04
2023-04-25T00:21:19.978Z,6.98
2023-04-25T00:23:47.662Z,6.93
2023-04-25T00:26:14.970Z,6.95
2023-04-25T00:28:42.394Z,6.98
2023-04-25T00:31:11.335Z,7.06
2023-04-25T00:33:38.644Z,6.99
2023-04-25T00:36:07.084Z,7.07
2023-04-25T00:38:34.472Z,7.07
2023-04-25T00:41:01.968Z,7.03
2023-04-25T00:43:31.260Z,6.99
2023-04-25T00:46:00.602Z,6.96
2023-04-25T00:48:31.897Z,7.06
2023-04-25T00:51:00.236Z,7.05
2023-04-25T00:53:29.213Z,7.07
2023-04-25T00:55:56.762Z,7.12
2023-04-25T00:58:24.184Z,7.08
2023-04-25T01:00:53.108Z,7.07
2023-04-25T01:03:20.934Z,7.09
2023-04-25T01:05:50.105Z,6.98
2023-04-25T01:08:17.539Z,6.93
2023-04-25T01:10:45.074Z,7.02
2023-04-25T01:13:12.411Z,6.98
2023-04-25T01:15:39.928Z,6.95
2023-04-25T01:18:07.497Z,6.91
2023-04-25T01:20:35.524Z,6.87
2023-04-25T01:23:04.405Z,6.86
2023-04-25T01:25:32.547Z,6.88
2023-04-25T01:28:00.368Z,6.84
2023-04-25T01:30:29.637Z,6.70
2023-04-25T01:32:57.906Z,6.71
2023-04-25T01:35:26.052Z,6.68
2023-04-25T01:37:55.056Z,6.63
2023-04-25T01:40:25.221Z,6.67
2023-04-25T01:42:52.834Z,6.69
2023-04-25T01:45:21.801Z,6.74
2023-04-25T01:47:49.576Z,6.75
2023-04-25T01:50:17.911Z,6.81
2023-04-25T01:52:45.348Z,6.82
2023-04-25T01:55:13.255Z,6.77
2023-04-25T01:57:49.676Z,6.79
2023-04-25T02:00:18.056Z,6.78
2023-04-25T02:02:45.590Z,6.75
2023-04-25T02:05:26.001Z,6.77
2023-04-25T02:07:53.592Z,6.76
2023-04-25T02:10:20.818Z,6.64
2023-04-25T02:13:03.731Z,6.59
2023-04-25T02:15:51.460Z,6.54
2023-04-25T02:18:20.685Z,6.56
2023-04-25T02:20:48.051Z,6.51
2023-04-25T02:23:15.460Z,6.52
2023-04-25T02:25:42.717Z,6.41
2023-04-25T02:28:11.385Z,6.37
2023-04-25T02:30:39.019Z,6.37
2023-04-25T02:33:06.373Z,6.36
2023-04-25T02:35:33.842Z,6.39
2023-04-25T02:38:01.141Z,6.33
2023-04-25T02:40:28.892Z,6.35
2023-04-25T02:42:56.749Z,6.30
2023-04-25T02:45:25.467Z,6.26
2023-04-25T02:47:52.923Z,6.25
2023-04-25T02:50:20.292Z,6.25
2023-04-25T02:52:48.236Z,6.20
2023-04-25T02:55:19.820Z,6.18
2023-04-25T02:57:47.898Z,6.16
2023-04-25T03:00:22.640Z,6.20
2023-04-25T03:02:52.052Z,6.29
2023-04-25T03:05:19.800Z,6.40
2023-04-25T03:07:47.254Z,6.48
2023-04-25T03:10:14.502Z,6.48
2023-04-25T03:12:41.916Z,6.46
2023-04-25T03:15:09.913Z,6.43
2023-04-25T03:17:37.349Z,6.46
2023-04-25T03:20:07.913Z,6.37
2023-04-25T03:22:35.377Z,6.27
2023-04-25T03:25:03.168Z,6.26
2023-04-25T03:27:30.472Z,6.21
2023-04-25T03:29:57.930Z,6.23
2023-04-25T03:32:25.547Z,6.19
2023-04-25T03:34:52.809Z,6.20
2023-04-25T03:37:21.597Z,6.21
2023-04-25T03:39:49.564Z,6.21
2023-04-25T03:42:17.360Z,6.20
2023-04-25T03:44:45.379Z,6.16
2023-04-25T03:47:13.858Z,6.09
2023-04-25T03:49:41.082Z,6.00
2023-04-25T03:52:08.451Z,5.95
2023-04-25T03:54:40.848Z,5.85
2023-04-25T03:57:15.327Z,5.85
2023-04-25T03:59:43.894Z,5.80
2023-04-25T04:02:13.175Z,5.81
2023-04-25T04:04:41.717Z,5.80
2023-04-25T04:07:10.584Z,5.73
2023-04-25T04:09:42.572Z,5.67
2023-04-25T04:12:16.192Z,5.61
2023-04-25T04:14:43.601Z,5.53
2023-04-25T04:17:10.813Z,5.58
2023-04-25T04:19:38.310Z,5.56
2023-04-25T04:22:10.832Z,5.56
2023-04-25T04:24:39.296Z,5.53
2023-04-25T04:27:09.847Z,5.60
2023-04-25T04:29:40.430Z,5.68
2023-04-25T04:32:24.286Z,5.73
2023-04-25T04:34:51.559Z,5.73
2023-04-25T04:37:20.027Z,5.76
2023-04-25T04:39:47.316Z,5.82
2023-04-25T04:42:26.512Z,5.88
2023-04-25T04:45:05.071Z,5.91
2023-04-25T04:48:01.508Z,5.90
2023-04-25T04:50:39.242Z,5.89
2023-04-25T04:53:29.610Z,5.99
2023-04-25T04:56:14.058Z,5.97
2023-04-25T04:59:01.114Z,5.99
2023-04-25T05:02:00.632Z,5.97
2023-04-25T05:04:43.594Z,6.02
2023-04-25T05:07:29.819Z,6.13
2023-04-25T05:10:15.409Z,6.18
2023-04-25T05:12:56.407Z,6.14
2023-04-25T05:15:53.163Z,6.18
2023-04-25T05:18:32.913Z,6.17
2023-04-25T05:21:18.790Z,6.21
2023-04-25T05:24:02.112Z,6.32
2023-04-25T05:26:47.956Z,6.18
2023-04-25T05:29:21.376Z,6.11
2023-04-25T05:32:03.500Z,6.07
2023-04-25T05:34:31.292Z,5.96
2023-04-25T05:37:02.253Z,6.00
2023-04-25T05:39:30.738Z,5.97
2023-04-25T05:42:16.076Z,5.97
2023-04-25T05:45:04.427Z,5.94
2023-04-25T05:47:38.803Z,5.87
2023-04-25T05:50:29.334Z,5.82
2023-04-25T05:53:01.978Z,5.77
2023-04-25T05:55:31.523Z,5.75
2023-04-25T05:58:00.646Z,5.81
2023-04-25T06:00:28.374Z,5.83
2023-04-25T06:02:57.517Z,5.90
2023-04-25T06:05:25.029Z,5.96
2023-04-25T06:07:52.533Z,6.04
2023-04-25T06:10:22.680Z,6.05
2023-04-25T06:12:50.024Z,6.17
2023-04-25T06:15:27.962Z,6.23
2023-04-25T06:17:57.709Z,6.31
2023-04-25T06:20:25.191Z,6.42
2023-04-25T06:22:53.859Z,6.47
2023-04-25T06:25:25.463Z,6.58
2023-04-25T06:27:52.941Z,6.54
2023-04-25T06:30:20.205Z,6.68
2023-04-25T06:32:47.644Z,6.83
2023-04-25T06:35:17.108Z,6.85
2023-04-25T06:37:44.677Z,6.98
2023-04-25T06:40:12.270Z,7.22
2023-04-25T06:42:39.697Z,7.43
2023-04-25T06:45:33.240Z,7.63
2023-04-25T06:48:00.710Z,7.78
2023-04-25T06:50:30.340Z,7.79
2023-04-25T06:52:57.971Z,7.89
2023-04-25T06:55:25.186Z,7.71
2023-04-25T06:58:08.922Z,7.72
2023-04-25T07:00:54.813Z,7.87
2023-04-25T07:03:25.017Z,7.77
2023-04-25T07:05:58.241Z,7.72
2023-04-25T07:08:26.262Z,7.77
2023-04-25T07:10:53.868Z,7.84
2023-04-25T07:13:21.221Z,7.88
2023-04-25T07:15:48.734Z,7.99
2023-04-25T07:18:17.875Z,8.15
2023-04-25T07:20:45.375Z,8.07
2023-04-25T07:23:15.003Z,7.85
2023-04-25T07:25:43.173Z,7.83
2023-04-25T07:28:10.622Z,7.60
2023-04-25T07:30:37.962Z,7.44
2023-04-25T07:33:05.365Z,7.43
2023-04-25T07:35:32.952Z,7.48
2023-04-25T07:38:00.521Z,7.64
2023-04-25T07:40:29.258Z,7.51
2023-04-25T07:43:02.192Z,7.45
2023-04-25T07:45:39.069Z,7.57
2023-04-25T07:48:07.036Z,7.93
2023-04-25T07:50:37.926Z,8.12
2023-04-25T07:53:05.511Z,8.45
2023-04-25T07:55:39.129Z,8.43
2023-04-25T07:58:12.229Z,8.53
2023-04-25T08:00:41.939Z,8.60
2023-04-25T08:03:32.713Z,8.26
2023-04-25T08:06:02.694Z,8.42
2023-04-25T08:08:34.520Z,8.62
2023-04-25T08:11:03.214Z,8.49
2023-04-25T08:13:31.494Z,8.60
2023-04-25T08:15:59.572Z,8.57
2023-04-25T08:18:27.423Z,8.15
2023-04-25T08:20:54.750Z,7.52
2023-04-25T08:23:22.088Z,6.65
2023-04-25T08:26:05.378Z,6.18
2023-04-25T08:28:35.391Z,6.18
2023-04-25T08:31:03.363Z,6.35
2023-04-25T08:33:38.255Z,6.62
2023-04-25T08:36:37.763Z,6.61
2023-04-25T08:39:14.260Z,6.60
2023-04-25T08:41:51.250Z,6.78
2023-04-25T08:44:18.576Z,6.99
2023-04-25T08:46:48.873Z,7.11
2023-04-25T08:49:26.686Z,7.27
2023-04-25T08:51:56.376Z,7.57
2023-04-25T08:54:34.357Z,7.83
2023-04-25T08:57:06.686Z,8.04
2023-04-25T08:59:33.921Z,7.98
2023-04-25T09:02:02.154Z,7.96
2023-04-25T09:04:32.395Z,7.87
2023-04-25T09:07:00.491Z,7.90
2023-04-25T09:09:28.086Z,8.17
2023-04-25T09:11:55.909Z,8.91
2023-04-25T09:14:26.420Z,9.13
2023-04-25T09:17:06.845Z,9.35
2023-04-25T09:19:45.509Z,9.58
2023-04-25T09:22:31.406Z,10.15
2023-04-25T09:25:03.874Z,10.02
2023-04-25T09:27:31.372Z,9.28
2023-04-25T09:30:10.066Z,9.19
2023-04-25T09:32:57.522Z,9.08
2023-04-25T09:35:25.755Z,8.54
2023-04-25T09:37:53.883Z,7.54
2023-04-25T09:40:48.164Z,7.25
2023-04-25T09:43:25.695Z,7.69
2023-04-25T09:45:57.494Z,7.78
2023-04-25T09:48:28.356Z,8.58
2023-04-25T09:51:09.858Z,8.37
2023-04-25T09:53:39.715Z,8.54
2023-04-25T09:56:21.106Z,9.70
2023-04-25T09:58:54.611Z,9.84
2023-04-25T10:01:25.066Z,10.68
2023-04-25T10:04:06.907Z,11.58
2023-04-25T10:06:59.346Z,11.32
2023-04-25T10:09:32.582Z,12.62
2023-04-25T10:12:00.833Z,13.34
2023-04-25T10:14:29.162Z,12.20
2023-04-25T10:16:58.649Z,12.15
2023-04-25T10:19:26.570Z,12.62
2023-04-25T10:22:03.488Z,10.86
2023-04-25T10:24:31.099Z,10.96
2023-04-25T10:26:59.158Z,10.83
2023-04-25T10:29:27.285Z,10.13
2023-04-25T10:31:54.825Z,9.74
2023-04-25T10:34:39.236Z,9.61
2023-04-25T10:37:09.191Z,9.34
2023-04-25T10:39:36.870Z,9.82
2023-04-25T10:42:04.276Z,9.89
2023-04-25T10:44:32.258Z,9.98
2023-04-25T10:47:00.756Z,10.79
2023-04-25T10:49:34.114Z,11.43
2023-04-25T10:52:19.240Z,12.09
2023-04-25T10:54:53.274Z,12.37
2023-04-25T10:57:39.666Z,11.82
2023-04-25T11:00:10.069Z,11.32
2023-04-25T11:02:45.579Z,12.09
2023-04-25T11:05:23.915Z,12.27
2023-04-25T11:10:41.312Z,13.01
2023-04-25T11:13:08.525Z,12.17
2023-04-25T11:14:37.962Z,12.87
2023-04-25T11:15:35.994Z,12.94
2023-04-25T11:18:03.774Z,12.26
2023-04-25T11:20:32.447Z,12.19
2023-04-25T11:22:59.762Z,10.62
2023-04-25T11:25:27.301Z,9.02
2023-04-25T11:27:55.430Z,8.57
2023-04-25T11:30:24.430Z,7.92
2023-04-25T11:32:52.069Z,7.07
2023-04-25T11:35:20.303Z,6.84
2023-04-25T11:37:49.597Z,6.35
2023-04-25T11:40:16.999Z,6.44
2023-04-25T11:42:45.783Z,6.46
2023-04-25T11:45:14.507Z,6.71
2023-04-25T11:47:41.893Z,7.04
2023-04-25T11:50:10.574Z,7.44
2023-04-25T11:52:39.776Z,7.80
2023-04-25T11:55:11.645Z,8.42
2023-04-25T11:57:40.980Z,8.70
2023-04-25T12:00:15.682Z,9.05
2023-04-25T12:02:46.411Z,10.48
2023-04-25T12:05:31.275Z,9.13
2023-04-25T12:08:13.135Z,8.03
2023-04-25T12:10:43.798Z,7.78
2023-04-25T12:13:25.005Z,7.69
2023-04-25T12:15:52.980Z,8.13
2023-04-25T12:18:20.994Z,8.10
2023-04-25T12:20:48.295Z,8.26
2023-04-25T12:23:15.700Z,8.41
2023-04-25T12:25:45.592Z,8.88
2023-04-25T12:28:14.517Z,10.49
2023-04-25T12:30:56.319Z,11.60
2023-04-25T12:33:24.200Z,12.09
2023-04-25T12:35:51.451Z,12.95
2023-04-25T12:38:25.862Z,13.47
2023-04-25T12:40:56.570Z,14.22
2023-04-25T12:43:24.164Z,12.99
2023-04-25T12:45:53.107Z,13.25
2023-04-25T12:48:21.260Z,13.42
2023-04-25T12:50:51.659Z,13.76
2023-04-25T12:53:19.720Z,12.61
2023-04-25T12:55:47.500Z,13.59
2023-04-25T12:58:17.115Z,14.25
2023-04-25T13:00:45.086Z,13.80
2023-04-25T13:03:12.449Z,11.34
2023-04-25T13:05:40.053Z,9.27
2023-04-25T13:08:07.304Z,7.92
2023-04-25T13:10:34.879Z,7.28
2023-04-25T13:13:02.470Z,7.22
2023-04-25T13:15:31.381Z,7.28
2023-04-25T13:17:58.597Z,7.77
2023-04-25T13:20:25.924Z,8.66
2023-04-25T13:22:53.105Z,9.72
2023-04-25T13:25:20.447Z,9.62
2023-04-25T13:27:47.703Z,10.26
2023-04-25T13:30:15.175Z,11.28
2023-04-25T13:32:43.861Z,12.74
2023-04-25T13:35:12.918Z,13.29
2023-04-25T13:37:44.186Z,12.31
2023-04-25T13:40:12.191Z,12.73
2023-04-25T13:42:39.887Z,12.84
2023-04-25T13:45:08.481Z,14.04
2023-04-25T13:47:36.392Z,15.08
2023-04-25T13:50:06.373Z,14.36
2023-04-25T13:52:34.000Z,12.68
2023-04-25T13:55:01.228Z,11.64
2023-04-25T13:57:28.450Z,12.64
2023-04-25T13:59:55.755Z,11.88
2023-04-25T14:02:23.342Z,11.26
2023-04-25T14:04:50.759Z,12.00
2023-04-25T14:07:19.449Z,10.76
2023-04-25T14:09:46.673Z,12.14
2023-04-25T14:12:14.130Z,13.62
2023-04-25T14:14:41.498Z,13.00
2023-04-25T14:17:09.476Z,12.72
2023-04-25T14:19:36.816Z,12.25
2023-04-25T14:22:04.077Z,11.37
2023-04-25T14:24:32.688Z,10.18
2023-04-25T14:27:00.212Z,10.18
2023-04-25T14:29:27.720Z,9.84
2023-04-25T14:31:54.970Z,9.92
2023-04-25T14:34:22.266Z,9.18
2023-04-25T14:36:49.673Z,9.10
2023-04-25T14:39:17.103Z,8.48
2023-04-25T14:41:46.118Z,8.22
2023-04-25T14:44:13.619Z,8.31
2023-04-25T14:46:40.923Z,8.27
2023-04-25T14:49:08.301Z,8.38
2023-04-25T14:51:36.253Z,8.33
2023-04-25T14:54:03.854Z,8.37
2023-04-25T14:56:31.043Z,8.90
2023-04-25T14:58:59.878Z,9.74
2023-04-25T15:01:27.362Z,10.50
2023-04-25T15:03:55.411Z,10.42
2023-04-25T15:06:23.923Z,10.12
2023-04-25T15:08:51.159Z,9.79
2023-04-25T15:11:19.598Z,9.38
2023-04-25T15:13:46.950Z,8.83
2023-04-25T15:16:15.711Z,9.07
2023-04-25T15:18:42.972Z,9.19
2023-04-25T15:21:10.280Z,8.72
2023-04-25T15:23:37.541Z,8.01
2023-04-25T15:26:04.947Z,8.15
2023-04-25T15:28:32.287Z,8.56
2023-04-25T15:30:59.498Z,11.25
2023-04-25T15:33:28.201Z,11.34
2023-04-25T15:35:55.401Z,11.19
2023-04-25T15:38:22.655Z,9.70
2023-04-25T15:40:49.887Z,9.43
2023-04-25T15:43:17.222Z,9.93
2023-04-25T15:45:44.883Z,10.42
2023-04-25T15:48:12.150Z,12.23
2023-04-25T15:50:41.455Z,11.12
2023-04-25T15:53:09.051Z,10.34
2023-04-25T15:55:36.260Z,9.71
2023-04-25T15:58:03.791Z,9.65
2023-04-25T16:00:31.346Z,9.81
2023-04-25T16:02:58.870Z,10.82
2023-04-25T16:05:26.441Z,12.98
2023-04-25T16:07:55.246Z,12.97
2023-04-25T16:10:22.544Z,11.92
2023-04-25T16:12:50.382Z,11.18
2023-04-25T16:15:18.200Z,10.36
2023-04-25T16:17:45.640Z,10.12
2023-04-25T16:20:13.259Z,11.06
2023-04-25T16:22:42.286Z,10.86
2023-04-25T16:25:11.405Z,10.13
2023-04-25T16:27:38.844Z,9.66
2023-04-25T16:30:08.147Z,9.36
2023-04-25T16:32:36.096Z,8.95
2023-04-25T16:35:03.614Z,8.92
2023-04-25T16:37:30.918Z,8.88
2023-04-25T16:39:58.153Z,9.39
2023-04-25T16:42:26.871Z,9.81
2023-04-25T16:44:54.069Z,10.33
2023-04-25T16:47:21.438Z,9.98
2023-04-25T16:49:48.811Z,9.93
2023-04-25T16:52:16.240Z,10.94
2023-04-25T16:54:43.609Z,10.80
2023-04-25T16:57:10.964Z,10.67
2023-04-25T16:59:40.220Z,11.12
2023-04-25T17:02:12.799Z,11.04
2023-04-25T17:04:40.665Z,9.73
2023-04-25T17:07:08.080Z,9.21
2023-04-25T17:09:35.496Z,8.63
2023-04-25T17:12:03.750Z,8.25
2023-04-25T17:14:31.247Z,7.88
2023-04-25T17:17:00.159Z,8.03
2023-04-25T17:19:27.967Z,8.03
2023-04-25T17:21:55.580Z,7.88
2023-04-25T17:24:22.941Z,7.83
2023-04-25T17:26:50.234Z,7.61
2023-04-25T17:29:17.480Z,7.78
2023-04-25T17:31:44.906Z,7.78
2023-04-25T17:34:14.314Z,7.77
2023-04-25T17:36:41.644Z,7.67
2023-04-25T17:39:08.939Z,8.09
2023-04-25T17:41:37.017Z,8.71
2023-04-25T17:44:04.884Z,8.20
2023-04-25T17:46:32.830Z,8.06
2023-04-25T17:49:00.259Z,8.22
2023-04-25T17:51:28.970Z,8.10
2023-04-25T17:53:56.408Z,7.84
2023-04-25T17:56:26.974Z,8.08
2023-04-25T17:58:55.444Z,8.22
2023-04-25T18:01:23.164Z,7.95
2023-04-25T18:03:51.831Z,7.67
2023-04-25T18:06:19.318Z,7.72
2023-04-25T18:08:48.157Z,7.79
2023-04-25T18:11:15.517Z,7.62
2023-04-25T18:13:42.800Z,7.43
2023-04-25T18:16:10.099Z,7.37
2023-04-25T18:18:37.388Z,7.14
2023-04-25T18:21:05.816Z,7.06
2023-04-25T18:23:33.466Z,6.92
2023-04-25T18:26:02.540Z,6.90
2023-04-25T18:28:29.958Z,6.88
2023-04-25T18:30:57.294Z,6.81
2023-04-25T18:33:24.592Z,6.72
2023-04-25T18:38:34.811Z,6.66
2023-04-25T18:41:18.288Z,6.62
2023-04-25T18:43:51.991Z,6.53
2023-04-25T18:46:19.524Z,6.49
2023-04-25T18:48:46.846Z,6.37
2023-04-25T18:51:14.311Z,6.35
2023-04-25T18:53:42.625Z,6.36
2023-04-25T18:56:11.169Z,6.34
2023-04-25T18:58:38.397Z,6.32
2023-04-25T19:01:05.708Z,6.32
2023-04-25T19:03:33.296Z,6.34
2023-04-25T19:06:01.237Z,6.27
2023-04-25T19:08:28.546Z,6.32
2023-04-25T19:10:55.877Z,6.32
2023-04-25T19:13:24.565Z,6.33
2023-04-25T19:15:53.949Z,6.42
2023-04-25T19:18:21.272Z,6.39
2023-04-25T19:20:48.653Z,6.36
2023-04-25T19:23:16.149Z,6.31
2023-04-25T19:25:43.433Z,6.31
2023-04-25T19:28:12.311Z,6.28
2023-04-25T19:30:41.283Z,6.21
2023-04-25T19:33:08.666Z,6.08
2023-04-25T19:35:35.997Z,5.96
2023-04-25T19:38:03.272Z,5.97
2023-04-25T19:40:30.815Z,5.96
2023-04-25T19:42:58.339Z,5.89
2023-04-25T19:45:25.718Z,5.84
2023-04-25T19:47:54.899Z,5.84
2023-04-25T19:50:22.308Z,5.83
2023-04-25T19:52:49.669Z,5.76
2023-04-25T19:55:16.888Z,5.70
2023-04-25T19:57:44.196Z,5.64
2023-04-25T20:00:13.363Z,5.62
2023-04-25T20:02:41.012Z,5.60
2023-04-25T20:05:09.980Z,5.63
2023-04-25T20:07:37.422Z,5.60
2023-04-25T20:10:06.078Z,5.59
2023-04-25T20:12:34.485Z,5.52
2023-04-25T20:15:01.946Z,5.56
2023-04-25T20:17:29.287Z,5.70
2023-04-25T20:19:56.777Z,5.77
2023-04-25T20:22:25.946Z,5.82
2023-04-25T20:24:53.221Z,5.83
2023-04-25T20:27:20.880Z,5.86
2023-04-25T20:29:48.198Z,5.78
2023-04-25T20:32:15.556Z,5.76
2023-04-25T20:34:42.965Z,5.71
2023-04-25T20:37:10.332Z,5.63
2023-04-25T20:39:38.982Z,5.59
2023-04-25T20:42:06.359Z,5.51
2023-04-25T20:44:33.577Z,5.42
2023-04-25T20:47:01.203Z,5.41
2023-04-25T20:49:28.541Z,5.39
2023-04-25T20:51:55.821Z,5.45
2023-04-25T20:54:23.189Z,5.55
2023-04-25T20:56:51.848Z,5.48
2023-04-25T20:59:19.057Z,5.35
2023-04-25T21:01:47.266Z,5.28
2023-04-25T21:04:14.641Z,5.30
2023-04-25T21:06:42.335Z,5.33
2023-04-25T21:09:09.545Z,5.35
2023-04-25T21:11:36.951Z,5.40
2023-04-25T21:14:07.036Z,5.40
2023-04-25T21:16:35.133Z,5.44
2023-04-25T21:19:02.598Z,5.52
2023-04-25T21:21:29.892Z,5.45
2023-04-25T21:23:57.236Z,5.50
2023-04-25T21:26:24.637Z,5.51
2023-04-25T21:28:52.087Z,5.50
2023-04-25T21:31:20.992Z,5.48
2023-04-25T21:33:48.249Z,5.52
2023-04-25T21:36:15.513Z,5.43
2023-04-25T21:38:42.952Z,5.47
2023-04-25T21:41:10.337Z,5.37
2023-04-25T21:43:37.548Z,5.37
2023-04-25T21:48:36.592Z,5.35
2023-04-25T21:51:04.383Z,5.30
2023-04-25T21:53:31.567Z,5.24
2023-04-25T21:55:58.858Z,5.26
2023-04-25T21:58:26.088Z,5.17
2023-04-25T22:00:53.966Z,5.11
2023-04-25T22:03:21.425Z,5.07
2023-04-25T22:05:50.227Z,5.06
2023-04-25T22:08:17.506Z,5.03
2023-04-25T22:10:44.838Z,4.98
2023-04-25T22:13:12.173Z,4.97
2023-04-25T22:15:39.464Z,4.86
2023-04-25T22:18:07.250Z,4.84
2023-04-25T22:20:37.858Z,4.84
2023-04-25T22:23:07.161Z,4.76
2023-04-25T22:25:34.687Z,4.77
2023-04-25T22:28:04.533Z,4.71
2023-04-25T22:30:32.657Z,4.69
2023-04-25T22:33:02.656Z,4.69
2023-04-25T22:35:31.524Z,4.61
2023-04-25T22:37:59.274Z,4.56
2023-04-25T22:40:27.964Z,4.57
2023-04-25T22:42:56.358Z,4.58
2023-04-25T22:45:23.638Z,4.55
2023-04-25T22:47:51.037Z,4.52
2023-04-25T22:50:19.181Z,4.49
2023-04-25T22:52:46.799Z,4.49
2023-04-25T22:55:14.261Z,4.49
2023-04-25T22:57:42.801Z,4.47
2023-04-25T23:00:11.240Z,4.40
2023-04-25T23:02:38.812Z,4.44
2023-04-25T23:05:06.962Z,4.44
2023-04-25T23:07:34.212Z,4.44
2023-04-25T23:10:01.753Z,4.37
2023-04-25T23:12:29.524Z,4.33
2023-04-25T23:14:58.361Z,4.35
2023-04-25T23:17:25.648Z,4.33
2023-04-25T23:19:53.088Z,4.26
2023-04-25T23:22:20.327Z,4.24
2023-04-25T23:24:47.644Z,4.22
2023-04-25T23:27:15.260Z,4.22
2023-04-25T23:29:42.492Z,4.22
2023-04-25T23:32:11.079Z,4.24
2023-04-25T23:34:38.284Z,4.22
2023-04-25T23:37:05.566Z,4.29
2023-04-25T23:39:32.823Z,4.31
2023-04-25T23:42:00.031Z,4.39
2023-04-25T23:44:27.984Z,4.44
2023-04-25T23:46:55.833Z,4.51
2023-04-25T23:49:25.125Z,4.50
2023-04-25T23:51:52.764Z,4.61
2023-04-25T23:54:20.024Z,4.60
2023-04-25T23:56:47.287Z,4.57
2023-04-25T23:59:14.663Z,4.52
